KGPT/GPT METAR and TAF weather

Enter ICAO airport designator
Station Type Date Time Source
KGPT METAR 2020/07/08 23:00 UTC NOAA

KGPT 082300Z 08004KT 10SM CLR 24/22 A2995 RMK AO2 LTG DSNT E AND SE T02440217


Station Type Date Time Source
KGPT Decoded METAR 2020/07/08 23:00 UTC NOAA

GULFPORT-BILOXI REG AIRPORT , MS, United States (KGPT) 30-25N 089-05W 14M
Jul 08, 2020 - 07:00 PM EDT / 2020.07.08 2300 UTC
Wind: from the E (080 degrees) at 5 MPH (4 KT):0
Visibility: 10 mile(s):0
Sky conditions: clear
Weather: Lightning observed
Temperature: 75.9 F (24.4 C)
Dew Point: 71.1 F (21.7 C)
Relative Humidity: 84%
Pressure (altimeter): 29.95 in. Hg (1014 hPa)
ob: KGPT 082300Z 08004KT 10SM CLR 24/22 A2995 RMK AO2 LTG DSNT E AND SE T02440217
cycle: 23

Station Type Date Time Source
KGPT TAF 2020/07/08 18:40 UTC NOAA

TAF KGPT 081740Z 0818/0918 20008KT P6SM VCTS SCT030CB BKN250
FM082300 19008KT P6SM SCT025 BKN250
FM090200 22006KT P6SM SCT030 BKN250
FM090600 25006KT P6SM SCT035 BKN250
FM091400 28006KT P6SM SCT020 BKN200

Example: see airport list